sensor_id;sensor_type;location;lat;lon;timestamp;P1;durP1;ratioP1;P2;durP2;ratioP2
36243;SDS011;22284;49.956;19.816;2023-09-07T00:02:20;18.30;;;8.70;;
36243;SDS011;22284;49.956;19.816;2023-09-07T00:05:34;16.20;;;8.70;;
36243;SDS011;22284;49.956;19.816;2023-09-07T00:08:36;16.80;;;8.60;;
36243;SDS011;22284;49.956;19.816;2023-09-07T00:11:41;18.30;;;8.20;;
36243;SDS011;22284;49.956;19.816;2023-09-07T00:14:43;14.00;;;7.90;;
36243;SDS011;22284;49.956;19.816;2023-09-07T00:17:47;15.50;;;8.00;;
36243;SDS011;22284;49.956;19.816;2023-09-07T00:20:52;15.90;;;8.30;;
36243;SDS011;22284;49.956;19.816;2023-09-07T00:23:57;18.20;;;8.90;;
36243;SDS011;22284;49.956;19.816;2023-09-07T00:50:19;15.40;;;7.90;;
36243;SDS011;22284;49.956;19.816;2023-09-07T00:54:07;16.90;;;7.90;;
36243;SDS011;22284;49.956;19.816;2023-09-07T00:57:17;14.50;;;7.50;;
36243;SDS011;22284;49.956;19.816;2023-09-07T01:00:27;13.30;;;7.10;;
36243;SDS011;22284;49.956;19.816;2023-09-07T01:03:42;15.30;;;8.10;;
36243;SDS011;22284;49.956;19.816;2023-09-07T01:06:47;17.60;;;7.80;;
36243;SDS011;22284;49.956;19.816;2023-09-07T01:10:14;14.70;;;7.70;;
36243;SDS011;22284;49.956;19.816;2023-09-07T01:13:49;15.50;;;7.80;;
36243;SDS011;22284;49.956;19.816;2023-09-07T01:20:10;16.30;;;8.30;;
36243;SDS011;22284;49.956;19.816;2023-09-07T01:23:14;16.40;;;8.50;;
36243;SDS011;22284;49.956;19.816;2023-09-07T01:26:36;18.00;;;8.50;;
36243;SDS011;22284;49.956;19.816;2023-09-07T01:29:41;19.50;;;9.00;;
36243;SDS011;22284;49.956;19.816;2023-09-07T01:32:45;16.80;;;8.10;;
36243;SDS011;22284;49.956;19.816;2023-09-07T01:51:28;16.60;;;7.80;;
36243;SDS011;22284;49.956;19.816;2023-09-07T02:09:58;14.80;;;7.70;;
36243;SDS011;22284;49.956;19.816;2023-09-07T02:36:41;16.00;;;7.50;;
36243;SDS011;22284;49.956;19.816;2023-09-07T02:40:15;15.30;;;7.00;;
36243;SDS011;22284;49.956;19.816;2023-09-07T02:46:46;13.40;;;6.80;;
36243;SDS011;22284;49.956;19.816;2023-09-07T02:49:57;15.10;;;6.90;;
36243;SDS011;22284;49.956;19.816;2023-09-07T02:53:17;14.30;;;6.80;;
36243;SDS011;22284;49.956;19.816;2023-09-07T02:56:19;12.50;;;7.60;;
36243;SDS011;22284;49.956;19.816;2023-09-07T02:59:21;11.40;;;6.80;;
36243;SDS011;22284;49.956;19.816;2023-09-07T03:02:46;14.90;;;7.40;;
36243;SDS011;22284;49.956;19.816;2023-09-07T03:06:07;16.10;;;7.70;;
36243;SDS011;22284;49.956;19.816;2023-09-07T03:09:14;13.80;;;7.30;;
36243;SDS011;22284;49.956;19.816;2023-09-07T03:12:33;13.80;;;7.40;;
36243;SDS011;22284;49.956;19.816;2023-09-07T03:15:36;15.40;;;8.60;;
36243;SDS011;22284;49.956;19.816;2023-09-07T03:18:41;13.70;;;7.10;;
36243;SDS011;22284;49.956;19.816;2023-09-07T03:21:43;16.50;;;7.80;;
36243;SDS011;22284;49.956;19.816;2023-09-07T03:24:53;15.30;;;7.30;;
36243;SDS011;22284;49.956;19.816;2023-09-07T03:28:08;13.80;;;7.20;;
36243;SDS011;22284;49.956;19.816;2023-09-07T03:31:10;15.10;;;8.20;;
36243;SDS011;22284;49.956;19.816;2023-09-07T03:34:19;14.90;;;7.10;;
36243;SDS011;22284;49.956;19.816;2023-09-07T03:49:55;15.40;;;7.40;;
36243;SDS011;22284;49.956;19.816;2023-09-07T03:53:43;16.10;;;7.40;;
36243;SDS011;22284;49.956;19.816;2023-09-07T04:04:41;15.40;;;8.00;;
36243;SDS011;22284;49.956;19.816;2023-09-07T04:07:45;12.60;;;7.30;;
36243;SDS011;22284;49.956;19.816;2023-09-07T04:11:02;12.40;;;7.30;;
36243;SDS011;22284;49.956;19.816;2023-09-07T04:14:18;15.10;;;7.30;;
36243;SDS011;22284;49.956;19.816;2023-09-07T04:17:43;12.40;;;6.90;;
36243;SDS011;22284;49.956;19.816;2023-09-07T04:24:08;15.40;;;7.90;;
36243;SDS011;22284;49.956;19.816;2023-09-07T04:27:10;15.40;;;7.50;;
36243;SDS011;22284;49.956;19.816;2023-09-07T04:30:22;13.00;;;7.10;;
36243;SDS011;22284;49.956;19.816;2023-09-07T04:33:26;14.30;;;7.50;;
36243;SDS011;22284;49.956;19.816;2023-09-07T05:04:09;15.10;;;7.40;;
36243;SDS011;22284;49.956;19.816;2023-09-07T05:07:15;14.40;;;7.50;;
36243;SDS011;22284;49.956;19.816;2023-09-07T05:10:37;15.70;;;7.40;;
36243;SDS011;22284;49.956;19.816;2023-09-07T05:13:39;15.60;;;7.40;;
36243;SDS011;22284;49.956;19.816;2023-09-07T05:16:44;11.40;;;6.80;;
36243;SDS011;22284;49.956;19.816;2023-09-07T05:23:16;12.60;;;6.70;;
36243;SDS011;22284;49.956;19.816;2023-09-07T05:26:22;16.30;;;7.80;;
36243;SDS011;22284;49.956;19.816;2023-09-07T05:29:35;11.70;;;6.50;;
36243;SDS011;22284;49.956;19.816;2023-09-07T05:33:14;13.80;;;7.10;;
36243;SDS011;22284;49.956;19.816;2023-09-07T05:36:20;14.30;;;6.70;;
36243;SDS011;22284;49.956;19.816;2023-09-07T05:39:37;13.90;;;7.10;;
36243;SDS011;22284;49.956;19.816;2023-09-07T05:42:48;16.00;;;7.50;;
36243;SDS011;22284;49.956;19.816;2023-09-07T05:45:53;14.00;;;7.50;;
36243;SDS011;22284;49.956;19.816;2023-09-07T05:48:55;15.70;;;7.80;;
36243;SDS011;22284;49.956;19.816;2023-09-07T05:52:21;14.40;;;8.20;;
36243;SDS011;22284;49.956;19.816;2023-09-07T05:55:27;15.40;;;7.80;;
36243;SDS011;22284;49.956;19.816;2023-09-07T05:58:30;15.10;;;8.10;;
36243;SDS011;22284;49.956;19.816;2023-09-07T06:01:32;15.50;;;8.40;;
36243;SDS011;22284;49.956;19.816;2023-09-07T06:04:34;15.60;;;8.20;;
36243;SDS011;22284;49.956;19.816;2023-09-07T06:07:36;14.80;;;8.30;;
36243;SDS011;22284;49.956;19.816;2023-09-07T06:14:08;14.40;;;8.00;;
36243;SDS011;22284;49.956;19.816;2023-09-07T06:17:17;13.30;;;7.50;;
36243;SDS011;22284;49.956;19.816;2023-09-07T06:20:31;14.20;;;8.50;;
36243;SDS011;22284;49.956;19.816;2023-09-07T06:23:35;16.90;;;8.50;;
36243;SDS011;22284;49.956;19.816;2023-09-07T06:26:43;16.60;;;8.30;;
36243;SDS011;22284;49.956;19.816;2023-09-07T06:30:06;14.40;;;8.20;;
36243;SDS011;22284;49.956;19.816;2023-09-07T06:33:17;15.60;;;7.90;;
36243;SDS011;22284;49.956;19.816;2023-09-07T06:36:39;14.70;;;8.20;;
36243;SDS011;22284;49.956;19.816;2023-09-07T06:39:58;16.40;;;8.40;;
36243;SDS011;22284;49.956;19.816;2023-09-07T06:43:13;14.80;;;8.50;;
36243;SDS011;22284;49.956;19.816;2023-09-07T06:46:15;15.00;;;8.60;;
36243;SDS011;22284;49.956;19.816;2023-09-07T06:49:20;15.30;;;8.60;;
36243;SDS011;22284;49.956;19.816;2023-09-07T06:52:41;18.10;;;9.20;;
36243;SDS011;22284;49.956;19.816;2023-09-07T06:55:45;19.90;;;10.10;;
36243;SDS011;22284;49.956;19.816;2023-09-07T06:58:57;18.80;;;9.70;;
36243;SDS011;22284;49.956;19.816;2023-09-07T07:02:15;17.30;;;10.00;;
36243;SDS011;22284;49.956;19.816;2023-09-07T07:09:21;20.50;;;11.50;;
36243;SDS011;22284;49.956;19.816;2023-09-07T07:13:03;17.50;;;10.00;;
36243;SDS011;22284;49.956;19.816;2023-09-07T07:25:08;20.10;;;10.60;;
36243;SDS011;22284;49.956;19.816;2023-09-07T08:15:45;16.10;;;7.80;;
36243;SDS011;22284;49.956;19.816;2023-09-07T08:46:35;14.60;;;7.50;;
36243;SDS011;22284;49.956;19.816;2023-09-07T08:53:21;10.90;;;6.20;;
36243;SDS011;22284;49.956;19.816;2023-09-07T08:56:24;13.90;;;6.70;;
36243;SDS011;22284;49.956;19.816;2023-09-07T08:59:29;10.60;;;6.20;;
36243;SDS011;22284;49.956;19.816;2023-09-07T09:02:47;11.50;;;6.40;;
36243;SDS011;22284;49.956;19.816;2023-09-07T09:05:52;11.40;;;6.60;;
36243;SDS011;22284;49.956;19.816;2023-09-07T09:09:05;11.80;;;6.70;;
36243;SDS011;22284;49.956;19.816;2023-09-07T09:12:27;13.00;;;6.70;;
36243;SDS011;22284;49.956;19.816;2023-09-07T09:15:38;13.50;;;5.80;;
36243;SDS011;22284;49.956;19.816;2023-09-07T09:19:00;11.20;;;6.40;;
36243;SDS011;22284;49.956;19.816;2023-09-07T09:22:02;12.00;;;6.10;;
36243;SDS011;22284;49.956;19.816;2023-09-07T09:25:26;11.00;;;6.30;;
36243;SDS011;22284;49.956;19.816;2023-09-07T09:28:28;11.60;;;6.20;;
36243;SDS011;22284;49.956;19.816;2023-09-07T09:31:44;9.80;;;5.90;;
36243;SDS011;22284;49.956;19.816;2023-09-07T09:34:46;8.60;;;5.50;;
36243;SDS011;22284;49.956;19.816;2023-09-07T09:37:50;11.80;;;5.70;;
36243;SDS011;22284;49.956;19.816;2023-09-07T09:40:52;13.30;;;6.00;;
36243;SDS011;22284;49.956;19.816;2023-09-07T09:44:01;8.90;;;5.40;;
36243;SDS011;22284;49.956;19.816;2023-09-07T09:55:28;8.50;;;5.40;;
36243;SDS011;22284;49.956;19.816;2023-09-07T09:59:04;11.10;;;5.70;;
36243;SDS011;22284;49.956;19.816;2023-09-07T10:31:18;8.60;;;5.10;;
36243;SDS011;22284;49.956;19.816;2023-09-07T10:34:52;11.60;;;5.60;;
36243;SDS011;22284;49.956;19.816;2023-09-07T10:46:04;9.30;;;5.10;;
36243;SDS011;22284;49.956;19.816;2023-09-07T10:49:13;9.20;;;5.00;;
36243;SDS011;22284;49.956;19.816;2023-09-07T10:52:22;8.70;;;5.00;;
36243;SDS011;22284;49.956;19.816;2023-09-07T10:55:23;10.10;;;5.50;;
36243;SDS011;22284;49.956;19.816;2023-09-07T10:58:30;8.70;;;5.60;;
36243;SDS011;22284;49.956;19.816;2023-09-07T11:01:43;8.20;;;5.00;;
36243;SDS011;22284;49.956;19.816;2023-09-07T11:04:55;9.00;;;5.20;;
36243;SDS011;22284;49.956;19.816;2023-09-07T11:07:59;8.70;;;5.10;;
36243;SDS011;22284;49.956;19.816;2023-09-07T11:14:06;7.70;;;4.90;;
36243;SDS011;22284;49.956;19.816;2023-09-07T11:17:11;9.00;;;4.80;;
36243;SDS011;22284;49.956;19.816;2023-09-07T11:20:32;7.30;;;4.80;;
36243;SDS011;22284;49.956;19.816;2023-09-07T11:23:35;11.20;;;5.30;;
36243;SDS011;22284;49.956;19.816;2023-09-07T11:26:46;8.90;;;4.70;;
36243;SDS011;22284;49.956;19.816;2023-09-07T11:29:55;9.20;;;4.70;;
36243;SDS011;22284;49.956;19.816;2023-09-07T11:33:02;7.00;;;4.70;;
36243;SDS011;22284;49.956;19.816;2023-09-07T11:36:08;7.60;;;5.10;;
36243;SDS011;22284;49.956;19.816;2023-09-07T11:39:10;8.40;;;4.60;;
36243;SDS011;22284;49.956;19.816;2023-09-07T11:42:16;10.70;;;6.00;;
36243;SDS011;22284;49.956;19.816;2023-09-07T11:45:24;11.40;;;5.80;;
36243;SDS011;22284;49.956;19.816;2023-09-07T11:57:13;10.30;;;5.90;;
36243;SDS011;22284;49.956;19.816;2023-09-07T12:00:44;8.90;;;5.20;;
36243;SDS011;22284;49.956;19.816;2023-09-07T12:12:22;10.30;;;5.70;;
36243;SDS011;22284;49.956;19.816;2023-09-07T12:16:25;11.60;;;5.90;;
36243;SDS011;22284;49.956;19.816;2023-09-07T12:20:08;9.70;;;6.20;;
36243;SDS011;22284;49.956;19.816;2023-09-07T12:55:13;7.70;;;5.40;;
36243;SDS011;22284;49.956;19.816;2023-09-07T12:58:20;11.60;;;5.40;;
36243;SDS011;22284;49.956;19.816;2023-09-07T13:01:28;10.30;;;6.10;;
36243;SDS011;22284;49.956;19.816;2023-09-07T13:04:32;10.80;;;5.20;;
36243;SDS011;22284;49.956;19.816;2023-09-07T13:07:37;6.90;;;4.90;;
36243;SDS011;22284;49.956;19.816;2023-09-07T13:10:39;8.40;;;5.20;;
36243;SDS011;22284;49.956;19.816;2023-09-07T13:13:49;8.50;;;4.80;;
36243;SDS011;22284;49.956;19.816;2023-09-07T13:16:56;9.00;;;5.30;;
36243;SDS011;22284;49.956;19.816;2023-09-07T13:20:01;9.70;;;5.00;;
36243;SDS011;22284;49.956;19.816;2023-09-07T13:23:03;11.30;;;5.70;;
36243;SDS011;22284;49.956;19.816;2023-09-07T13:26:29;7.70;;;5.00;;
36243;SDS011;22284;49.956;19.816;2023-09-07T13:30:05;10.10;;;5.00;;
36243;SDS011;22284;49.956;19.816;2023-09-07T13:33:31;9.90;;;6.10;;
36243;SDS011;22284;49.956;19.816;2023-09-07T13:37:16;8.40;;;5.20;;
36243;SDS011;22284;49.956;19.816;2023-09-07T13:44:42;8.30;;;5.10;;
36243;SDS011;22284;49.956;19.816;2023-09-07T13:52:17;9.30;;;5.50;;
36243;SDS011;22284;49.956;19.816;2023-09-07T14:07:22;11.50;;;5.80;;
36243;SDS011;22284;49.956;19.816;2023-09-07T14:14:47;8.80;;;5.40;;
36243;SDS011;22284;49.956;19.816;2023-09-07T14:22:24;7.20;;;4.80;;
36243;SDS011;22284;49.956;19.816;2023-09-07T14:25:46;7.40;;;4.40;;
36243;SDS011;22284;49.956;19.816;2023-09-07T14:28:48;8.50;;;4.90;;
36243;SDS011;22284;49.956;19.816;2023-09-07T14:31:58;11.10;;;5.10;;
36243;SDS011;22284;49.956;19.816;2023-09-07T14:34:59;8.60;;;4.90;;
36243;SDS011;22284;49.956;19.816;2023-09-07T14:38:05;9.10;;;5.00;;
36243;SDS011;22284;49.956;19.816;2023-09-07T14:41:10;8.50;;;4.50;;
36243;SDS011;22284;49.956;19.816;2023-09-07T14:44:20;9.20;;;4.60;;
36243;SDS011;22284;49.956;19.816;2023-09-07T14:50:27;6.50;;;4.30;;
36243;SDS011;22284;49.956;19.816;2023-09-07T14:53:29;8.10;;;4.80;;
36243;SDS011;22284;49.956;19.816;2023-09-07T14:56:37;10.30;;;4.70;;
36243;SDS011;22284;49.956;19.816;2023-09-07T14:59:59;6.30;;;4.20;;
36243;SDS011;22284;49.956;19.816;2023-09-07T15:03:01;8.30;;;4.60;;
36243;SDS011;22284;49.956;19.816;2023-09-07T15:06:03;9.20;;;4.90;;
36243;SDS011;22284;49.956;19.816;2023-09-07T15:09:13;8.30;;;5.60;;
36243;SDS011;22284;49.956;19.816;2023-09-07T15:12:15;8.60;;;4.90;;
36243;SDS011;22284;49.956;19.816;2023-09-07T15:15:25;9.40;;;5.10;;
36243;SDS011;22284;49.956;19.816;2023-09-07T15:18:27;8.40;;;5.00;;
36243;SDS011;22284;49.956;19.816;2023-09-07T15:21:31;8.40;;;4.80;;
36243;SDS011;22284;49.956;19.816;2023-09-07T15:24:36;9.30;;;4.90;;
36243;SDS011;22284;49.956;19.816;2023-09-07T15:27:38;8.50;;;5.00;;
36243;SDS011;22284;49.956;19.816;2023-09-07T15:30:40;10.40;;;5.30;;
36243;SDS011;22284;49.956;19.816;2023-09-07T15:33:42;7.40;;;4.50;;
36243;SDS011;22284;49.956;19.816;2023-09-07T15:36:43;7.60;;;5.10;;
36243;SDS011;22284;49.956;19.816;2023-09-07T15:39:45;8.10;;;5.20;;
36243;SDS011;22284;49.956;19.816;2023-09-07T15:42:47;21.90;;;18.90;;
36243;SDS011;22284;49.956;19.816;2023-09-07T15:45:50;25.30;;;19.90;;
36243;SDS011;22284;49.956;19.816;2023-09-07T15:48:53;15.00;;;9.80;;
36243;SDS011;22284;49.956;19.816;2023-09-07T15:51:55;15.90;;;9.50;;
36243;SDS011;22284;49.956;19.816;2023-09-07T15:55:04;13.20;;;6.90;;
36243;SDS011;22284;49.956;19.816;2023-09-07T16:01:28;17.20;;;10.50;;
36243;SDS011;22284;49.956;19.816;2023-09-07T16:04:33;31.50;;;24.10;;
36243;SDS011;22284;49.956;19.816;2023-09-07T16:08:04;31.50;;;18.80;;
36243;SDS011;22284;49.956;19.816;2023-09-07T16:11:40;25.80;;;17.50;;
36243;SDS011;22284;49.956;19.816;2023-09-07T16:22:45;18.80;;;10.10;;
36243;SDS011;22284;49.956;19.816;2023-09-07T16:37:29;18.10;;;10.60;;
36243;SDS011;22284;49.956;19.816;2023-09-07T16:40:47;11.30;;;6.70;;
36243;SDS011;22284;49.956;19.816;2023-09-07T16:44:04;10.40;;;5.70;;
36243;SDS011;22284;49.956;19.816;2023-09-07T16:47:06;48.00;;;36.60;;
36243;SDS011;22284;49.956;19.816;2023-09-07T16:50:08;21.20;;;11.30;;
36243;SDS011;22284;49.956;19.816;2023-09-07T16:53:10;49.50;;;30.50;;
36243;SDS011;22284;49.956;19.816;2023-09-07T16:56:12;44.70;;;21.50;;
36243;SDS011;22284;49.956;19.816;2023-09-07T16:59:26;15.00;;;7.50;;
36243;SDS011;22284;49.956;19.816;2023-09-07T17:02:37;12.50;;;6.50;;
36243;SDS011;22284;49.956;19.816;2023-09-07T17:05:42;12.20;;;6.60;;
36243;SDS011;22284;49.956;19.816;2023-09-07T17:08:52;10.60;;;6.30;;
36243;SDS011;22284;49.956;19.816;2023-09-07T17:11:54;11.60;;;6.50;;
36243;SDS011;22284;49.956;19.816;2023-09-07T17:14:58;11.80;;;6.50;;
36243;SDS011;22284;49.956;19.816;2023-09-07T17:18:00;16.80;;;6.70;;
36243;SDS011;22284;49.956;19.816;2023-09-07T17:21:05;17.50;;;7.90;;
36243;SDS011;22284;49.956;19.816;2023-09-07T17:24:10;13.40;;;6.90;;
36243;SDS011;22284;49.956;19.816;2023-09-07T17:27:15;11.10;;;6.60;;
36243;SDS011;22284;49.956;19.816;2023-09-07T17:30:17;12.90;;;7.20;;
36243;SDS011;22284;49.956;19.816;2023-09-07T17:33:19;10.90;;;6.70;;
36243;SDS011;22284;49.956;19.816;2023-09-07T17:36:21;12.30;;;6.90;;
36243;SDS011;22284;49.956;19.816;2023-09-07T17:39:36;10.90;;;6.40;;
36243;SDS011;22284;49.956;19.816;2023-09-07T17:42:52;12.10;;;7.20;;
36243;SDS011;22284;49.956;19.816;2023-09-07T17:46:08;13.30;;;6.50;;
36243;SDS011;22284;49.956;19.816;2023-09-07T17:49:10;12.30;;;6.50;;
36243;SDS011;22284;49.956;19.816;2023-09-07T17:52:14;13.60;;;6.90;;
36243;SDS011;22284;49.956;19.816;2023-09-07T17:55:16;10.80;;;6.80;;
36243;SDS011;22284;49.956;19.816;2023-09-07T17:58:25;12.20;;;6.70;;
36243;SDS011;22284;49.956;19.816;2023-09-07T18:01:27;12.10;;;6.80;;
36243;SDS011;22284;49.956;19.816;2023-09-07T18:12:12;12.70;;;8.00;;
36243;SDS011;22284;49.956;19.816;2023-09-07T18:34:07;15.90;;;8.80;;
36243;SDS011;22284;49.956;19.816;2023-09-07T18:37:17;15.50;;;8.70;;
36243;SDS011;22284;49.956;19.816;2023-09-07T18:40:28;17.10;;;9.10;;
36243;SDS011;22284;49.956;19.816;2023-09-07T18:43:33;16.60;;;8.90;;
36243;SDS011;22284;49.956;19.816;2023-09-07T18:46:35;17.90;;;9.00;;
36243;SDS011;22284;49.956;19.816;2023-09-07T18:49:42;15.00;;;9.10;;
36243;SDS011;22284;49.956;19.816;2023-09-07T18:52:47;18.70;;;8.70;;
36243;SDS011;22284;49.956;19.816;2023-09-07T18:56:11;16.70;;;9.30;;
36243;SDS011;22284;49.956;19.816;2023-09-07T18:59:12;16.50;;;8.70;;
36243;SDS011;22284;49.956;19.816;2023-09-07T19:02:14;16.50;;;9.00;;
36243;SDS011;22284;49.956;19.816;2023-09-07T19:05:16;18.90;;;9.70;;
36243;SDS011;22284;49.956;19.816;2023-09-07T19:08:18;19.10;;;9.30;;
36243;SDS011;22284;49.956;19.816;2023-09-07T19:14:38;16.60;;;9.60;;
36243;SDS011;22284;49.956;19.816;2023-09-07T19:17:47;16.80;;;9.70;;
36243;SDS011;22284;49.956;19.816;2023-09-07T19:20:52;20.40;;;9.70;;
36243;SDS011;22284;49.956;19.816;2023-09-07T19:23:58;16.10;;;9.30;;
36243;SDS011;22284;49.956;19.816;2023-09-07T19:27:00;18.50;;;9.80;;
36243;SDS011;22284;49.956;19.816;2023-09-07T19:30:05;19.10;;;9.20;;
36243;SDS011;22284;49.956;19.816;2023-09-07T19:48:14;20.50;;;11.40;;
36243;SDS011;22284;49.956;19.816;2023-09-07T19:51:41;18.90;;;11.40;;
36243;SDS011;22284;49.956;19.816;2023-09-07T19:55:24;19.70;;;11.80;;
36243;SDS011;22284;49.956;19.816;2023-09-07T19:59:07;21.40;;;11.70;;
36243;SDS011;22284;49.956;19.816;2023-09-07T20:02:25;19.40;;;11.80;;
36243;SDS011;22284;49.956;19.816;2023-09-07T20:05:59;21.70;;;11.90;;
36243;SDS011;22284;49.956;19.816;2023-09-07T20:09:00;20.50;;;11.70;;
36243;SDS011;22284;49.956;19.816;2023-09-07T20:12:05;21.40;;;11.10;;
36243;SDS011;22284;49.956;19.816;2023-09-07T20:15:08;18.80;;;10.10;;
36243;SDS011;22284;49.956;19.816;2023-09-07T20:18:17;16.00;;;9.50;;
36243;SDS011;22284;49.956;19.816;2023-09-07T20:21:19;19.70;;;11.00;;
36243;SDS011;22284;49.956;19.816;2023-09-07T20:24:24;18.90;;;11.30;;
36243;SDS011;22284;49.956;19.816;2023-09-07T20:27:44;19.00;;;10.10;;
36243;SDS011;22284;49.956;19.816;2023-09-07T20:30:49;19.20;;;10.70;;
36243;SDS011;22284;49.956;19.816;2023-09-07T20:33:50;20.00;;;10.40;;
36243;SDS011;22284;49.956;19.816;2023-09-07T20:36:52;19.60;;;11.50;;
36243;SDS011;22284;49.956;19.816;2023-09-07T20:39:54;21.50;;;11.00;;
36243;SDS011;22284;49.956;19.816;2023-09-07T20:42:57;20.40;;;11.60;;
36243;SDS011;22284;49.956;19.816;2023-09-07T20:45:59;20.70;;;10.60;;
36243;SDS011;22284;49.956;19.816;2023-09-07T20:49:01;20.00;;;10.80;;
36243;SDS011;22284;49.956;19.816;2023-09-07T20:52:08;19.50;;;10.50;;
36243;SDS011;22284;49.956;19.816;2023-09-07T20:55:11;19.40;;;11.20;;
36243;SDS011;22284;49.956;19.816;2023-09-07T20:58:12;20.90;;;11.70;;
36243;SDS011;22284;49.956;19.816;2023-09-07T21:01:14;22.80;;;12.30;;
36243;SDS011;22284;49.956;19.816;2023-09-07T21:04:37;21.30;;;11.90;;
36243;SDS011;22284;49.956;19.816;2023-09-07T21:07:38;21.50;;;12.10;;
36243;SDS011;22284;49.956;19.816;2023-09-07T21:10:41;23.70;;;12.50;;
36243;SDS011;22284;49.956;19.816;2023-09-07T21:13:43;23.10;;;12.50;;
36243;SDS011;22284;49.956;19.816;2023-09-07T21:35:27;22.90;;;11.60;;
36243;SDS011;22284;49.956;19.816;2023-09-07T21:38:49;20.80;;;12.00;;
36243;SDS011;22284;49.956;19.816;2023-09-07T21:46:21;23.50;;;12.60;;
36243;SDS011;22284;49.956;19.816;2023-09-07T21:49:26;23.00;;;12.00;;
36243;SDS011;22284;49.956;19.816;2023-09-07T21:52:28;22.90;;;12.80;;
36243;SDS011;22284;49.956;19.816;2023-09-07T21:55:39;20.30;;;12.20;;
36243;SDS011;22284;49.956;19.816;2023-09-07T21:58:44;21.10;;;11.70;;
36243;SDS011;22284;49.956;19.816;2023-09-07T22:01:46;20.30;;;10.80;;
36243;SDS011;22284;49.956;19.816;2023-09-07T22:05:00;21.10;;;11.80;;
36243;SDS011;22284;49.956;19.816;2023-09-07T22:08:02;18.70;;;11.30;;
36243;SDS011;22284;49.956;19.816;2023-09-07T22:11:05;19.00;;;11.10;;
36243;SDS011;22284;49.956;19.816;2023-09-07T22:14:06;20.80;;;11.30;;
36243;SDS011;22284;49.956;19.816;2023-09-07T22:17:08;19.50;;;10.90;;
36243;SDS011;22284;49.956;19.816;2023-09-07T22:20:20;20.00;;;10.90;;
36243;SDS011;22284;49.956;19.816;2023-09-07T22:23:22;22.10;;;12.60;;
36243;SDS011;22284;49.956;19.816;2023-09-07T22:30:01;20.40;;;11.70;;
36243;SDS011;22284;49.956;19.816;2023-09-07T22:33:06;23.60;;;13.40;;
36243;SDS011;22284;49.956;19.816;2023-09-07T22:36:08;26.00;;;14.30;;
36243;SDS011;22284;49.956;19.816;2023-09-07T22:42:13;24.70;;;13.60;;
36243;SDS011;22284;49.956;19.816;2023-09-07T22:45:33;21.40;;;12.40;;
36243;SDS011;22284;49.956;19.816;2023-09-07T22:48:35;20.70;;;11.90;;
36243;SDS011;22284;49.956;19.816;2023-09-07T22:58:07;22.50;;;13.10;;
36243;SDS011;22284;49.956;19.816;2023-09-07T23:01:11;23.30;;;12.80;;
36243;SDS011;22284;49.956;19.816;2023-09-07T23:04:16;24.40;;;12.90;;
36243;SDS011;22284;49.956;19.816;2023-09-07T23:07:26;23.80;;;12.70;;
36243;SDS011;22284;49.956;19.816;2023-09-07T23:10:33;23.60;;;13.40;;
36243;SDS011;22284;49.956;19.816;2023-09-07T23:13:44;22.50;;;12.90;;
36243;SDS011;22284;49.956;19.816;2023-09-07T23:16:49;24.10;;;13.60;;
36243;SDS011;22284;49.956;19.816;2023-09-07T23:19:54;23.30;;;13.60;;
36243;SDS011;22284;49.956;19.816;2023-09-07T23:23:14;21.50;;;13.00;;
36243;SDS011;22284;49.956;19.816;2023-09-07T23:26:25;23.50;;;12.80;;
36243;SDS011;22284;49.956;19.816;2023-09-07T23:29:38;21.80;;;13.20;;
36243;SDS011;22284;49.956;19.816;2023-09-07T23:32:52;22.70;;;13.70;;
36243;SDS011;22284;49.956;19.816;2023-09-07T23:36:02;22.60;;;12.90;;
36243;SDS011;22284;49.956;19.816;2023-09-07T23:39:06;25.00;;;12.80;;
36243;SDS011;22284;49.956;19.816;2023-09-07T23:42:17;23.80;;;14.10;;
36243;SDS011;22284;49.956;19.816;2023-09-07T23:45:24;23.80;;;13.50;;
36243;SDS011;22284;49.956;19.816;2023-09-07T23:48:35;27.70;;;13.70;;
36243;SDS011;22284;49.956;19.816;2023-09-07T23:51:37;18.90;;;11.20;;
36243;SDS011;22284;49.956;19.816;2023-09-07T23:54:56;22.50;;;11.60;;
